Airport View

Enter AWOS ICAO identifier for current METAR.

ex. KFNL

KHRJ 140300Z AUTO 35003KT 5SM RA OVC004 11/11 A2977 RMK AO2 P0001 T01100110

14 Dec 2019 03:00

Frequency: 119.025

Phone: 910-814-3946

Other Area AWOS: KFBG - KJNX - KPOB - KTTA

TAF AMD KFBG 132200Z 1321/1424 03006KT 8000 -RA FEW004 SCT008 BKN012 BKN025 OVC045 550025 QNH2994INS TEMPO 1322/1402 2400 +RA OVC004 BECMG 1402/1403 05006KT 6000 RA BR OVC003 550052 QNH2977INS BECMG 1408/1409 21006KT 3200 -RA BR OVC003 550052 QNH2961INS BECMG 1414/1415 24010G15KT 9999 NSW OVC006 510053 QNH2956INS BECMG 1421/1422 22009KT 9999 SCT032 BKN100 QNH2961INS TX12/1400Z TN07/1411Z